Time;durP1;ratioP1;P1;durP2;ratioP2;P2;SDS_P1;SDS_P2;PMS_P1;PMS_P2;Temp;Humidity;BMP_temperature;BMP_pressure;BME280_temperature;BME280_humidity;BME280_pressure;Samples;Min_cycle;Max_cycle;Signal;HPM_P1;HPM_P2
2022/03/13 05:02:11;;;;;;;26.97;22.07;;;2.80;90.50;;;;;;5208849;23;20490;-67
2022/03/13 05:04:38;;;;;;;24.67;20.60;;;2.80;90.80;;;;;;5016123;28;20473;-67
2022/03/13 05:07:06;;;;;;;24.47;20.47;;;2.80;91.10;;;;;;5015859;28;20514;-67
2022/03/13 05:09:33;;;;;;;24.30;20.87;;;2.70;91.30;;;;;;5015829;28;20530;-68
2022/03/13 05:12:07;;;;;;;24.50;21.53;;;2.70;91.60;;;;;;5015964;28;20491;-68
2022/03/13 05:14:34;;;;;;;29.20;20.77;;;2.70;91.80;;;;;;5015186;28;20520;-68
2022/03/13 05:17:01;;;;;;;22.80;18.73;;;2.80;92.00;;;;;;5015482;28;20456;-67
2022/03/13 05:19:29;;;;;;;22.47;19.87;;;2.80;91.90;;;;;;5014641;28;20509;-67
2022/03/13 05:21:56;;;;;;;21.43;18.00;;;2.80;91.60;;;;;;5016246;28;20484;-67
2022/03/13 05:24:22;;;;;;;19.00;16.57;;;2.70;91.00;;;;;;5016929;28;20456;-67
2022/03/13 05:26:49;;;;;;;19.07;15.63;;;2.70;90.50;;;;;;5014757;28;20460;-67
2022/03/13 05:29:16;;;;;;;16.10;14.40;;;2.70;89.10;;;;;;5013953;28;20824;-68
2022/03/13 05:31:43;;;;;;;14.03;12.47;;;2.70;87.30;;;;;;5014096;28;20482;-67
2022/03/13 05:34:10;;;;;;;15.43;12.90;;;2.60;86.00;;;;;;5014009;28;20447;-67
2022/03/13 05:36:39;;;;;;;14.80;13.03;;;2.60;85.20;;;;;;5013797;28;20885;-67
2022/03/13 05:39:06;;;;;;;18.00;12.40;;;2.60;84.40;;;;;;5013499;28;20459;-68
2022/03/13 05:41:33;;;;;;;14.20;12.33;;;2.60;83.70;;;;;;5013838;28;20476;-67
2022/03/13 05:43:59;;;;;;;20.73;12.20;;;2.60;83.00;;;;;;5014531;28;20544;-67
2022/03/13 05:46:26;;;;;;;14.87;12.50;;;2.60;82.70;;;;;;5015141;28;20457;-68
2022/03/13 05:48:53;;;;;;;16.47;12.20;;;2.60;82.50;;;;;;5014277;28;20485;-67
2022/03/13 05:51:19;;;;;;;19.40;12.60;;;2.60;81.80;;;;;;5013801;28;20535;-67
2022/03/13 05:53:47;;;;;;;13.10;11.70;;;2.60;80.60;;;;;;5013952;28;20513;-67
2022/03/13 05:56:14;;;;;;;12.43;11.23;;;2.60;80.30;;;;;;5014283;28;20478;-68
2022/03/13 05:58:41;;;;;;;13.43;11.90;;;2.60;80.40;;;;;;5014264;28;20492;-67
2022/03/13 06:01:08;;;;;;;14.03;12.53;;;2.60;80.90;;;;;;5013735;28;20987;-67
2022/03/13 06:03:36;;;;;;;14.57;12.90;;;2.60;80.00;;;;;;5014616;28;20480;-67
2022/03/13 06:06:04;;;;;;;13.17;11.77;;;2.60;79.80;;;;;;5014798;28;20534;-68
2022/03/13 06:08:31;;;;;;;13.67;10.80;;;2.60;79.90;;;;;;5015146;28;20471;-69
2022/03/13 06:10:59;;;;;;;15.30;11.83;;;2.60;79.70;;;;;;5015054;28;20487;-68
2022/03/13 06:13:26;;;;;;;14.30;12.20;;;2.60;79.10;;;;;;5014896;28;20463;-68
2022/03/13 06:15:52;;;;;;;13.97;12.30;;;2.60;78.60;;;;;;5014243;28;20576;-68
2022/03/13 06:18:20;;;;;;;13.10;11.37;;;2.60;78.60;;;;;;5015143;28;20534;-67
2022/03/13 06:20:47;;;;;;;14.17;11.30;;;2.70;78.70;;;;;;5015932;28;20482;-68
2022/03/13 06:23:14;;;;;;;12.50;10.90;;;2.70;77.90;;;;;;5017841;28;20464;-69
2022/03/13 06:25:43;;;;;;;11.47;10.27;;;2.80;77.60;;;;;;5017983;28;20454;-67
2022/03/13 06:28:11;;;;;;;14.70;11.37;;;2.80;77.70;;;;;;5017817;28;20451;-68
2022/03/13 06:30:38;;;;;;;17.30;11.30;;;2.90;77.50;;;;;;5018142;28;20479;-68
2022/03/13 06:33:05;;;;;;;12.03;10.43;;;2.90;77.80;;;;;;5018004;28;20492;-69
2022/03/13 06:35:33;;;;;;;12.20;10.77;;;3.00;77.20;;;;;;5018101;28;20475;-68
2022/03/13 06:38:00;;;;;;;13.87;10.90;;;3.10;77.00;;;;;;5017611;28;20461;-68
2022/03/13 06:40:26;;;;;;;14.47;11.70;;;3.10;76.90;;;;;;5017815;28;20453;-68
2022/03/13 06:42:55;;;;;;;12.90;11.27;;;3.20;76.50;;;;;;5017704;28;20460;-68
2022/03/13 06:45:24;;;;;;;16.37;11.67;;;3.40;76.40;;;;;;5018156;28;20455;-68
2022/03/13 06:47:52;;;;;;;14.10;11.57;;;3.80;76.60;;;;;;5018189;28;20464;-68
2022/03/13 06:50:20;;;;;;;16.60;10.10;;;4.40;75.20;;;;;;5017872;28;20489;-69
2022/03/13 06:52:48;;;;;;;12.33;10.67;;;5.10;72.20;;;;;;5017818;28;20464;-67
2022/03/13 06:55:16;;;;;;;13.70;9.87;;;5.90;69.50;;;;;;5017319;28;20500;-70
2022/03/13 06:57:44;;;;;;;13.00;10.90;;;6.60;65.80;;;;;;5016839;28;20464;-68
2022/03/13 07:00:12;;;;;;;12.63;10.27;;;7.40;63.50;;;;;;5017016;28;20464;-68
2022/03/13 07:02:40;;;;;;;11.40;10.20;;;8.00;59.80;;;;;;5016781;28;20469;-68
2022/03/13 07:05:08;;;;;;;12.17;10.80;;;8.50;56.90;;;;;;5016832;28;20460;-68
2022/03/13 07:07:34;;;;;;;13.33;9.90;;;8.90;56.00;;;;;;5017018;28;20528;-68
2022/03/13 07:10:01;;;;;;;11.60;10.40;;;9.30;55.40;;;;;;5016892;28;20898;-68
2022/03/13 07:12:28;;;;;;;13.87;10.20;;;9.60;54.10;;;;;;5016822;28;20473;-67
2022/03/13 07:14:56;;;;;;;11.37;9.37;;;9.90;52.50;;;;;;5017208;28;20453;-67
2022/03/13 07:17:24;;;;;;;9.80;8.80;;;10.20;50.60;;;;;;5019930;28;20477;-67
2022/03/13 07:19:52;;;;;;;11.37;9.43;;;10.10;49.70;;;;;;5018330;28;20446;-67
2022/03/13 07:22:19;;;;;;;14.70;9.67;;;10.40;49.50;;;;;;5016961;28;20475;-67
2022/03/13 07:24:46;;;;;;;10.70;9.63;;;10.50;48.50;;;;;;5017137;28;20835;-67
2022/03/13 07:27:14;;;;;;;11.03;9.60;;;10.50;48.20;;;;;;5016973;28;20457;-67
2022/03/13 07:29:41;;;;;;;13.03;10.17;;;10.80;48.30;;;;;;5017069;28;20444;-67
2022/03/13 07:32:09;;;;;;;10.10;9.10;;;11.00;47.60;;;;;;5016889;28;20823;-67
2022/03/13 07:34:35;;;;;;;13.10;9.77;;;11.30;47.60;;;;;;5017003;28;20456;-67
2022/03/13 07:37:04;;;;;;;10.53;9.57;;;11.80;47.40;;;;;;5016673;28;20488;-67
2022/03/13 07:39:31;;;;;;;10.80;9.73;;;12.30;50.60;;;;;;5016710;28;20453;-68
2022/03/13 07:41:58;;;;;;;18.93;10.30;;;12.40;46.10;;;;;;5016613;28;20513;-67
2022/03/13 07:44:25;;;;;;;12.07;9.73;;;12.70;46.70;;;;;;5016263;28;20457;-67
2022/03/13 07:46:52;;;;;;;11.83;9.53;;;13.00;45.20;;;;;;5016245;28;20453;-68
2022/03/13 07:49:18;;;;;;;11.10;9.70;;;13.30;45.00;;;;;;5016893;28;20456;-67
2022/03/13 07:51:46;;;;;;;12.63;10.20;;;13.40;44.50;;;;;;5016278;28;20477;-67
2022/03/13 07:54:15;;;;;;;11.43;10.00;;;13.60;43.90;;;;;;5015303;28;20453;-66
2022/03/13 07:56:42;;;;;;;11.07;9.93;;;14.10;44.20;;;;;;5015067;28;20567;-66
2022/03/13 07:59:09;;;;;;;11.20;10.10;;;14.50;44.10;;;;;;5014743;28;20792;-67
2022/03/13 08:01:35;;;;;;;11.67;10.47;;;14.70;42.60;;;;;;5014911;28;20834;-66
2022/03/13 08:04:04;;;;;;;12.33;11.13;;;15.00;42.20;;;;;;5015243;28;20456;-66
2022/03/13 08:06:31;;;;;;;13.10;10.70;;;15.10;42.00;;;;;;5015266;28;20468;-66
2022/03/13 08:08:58;;;;;;;13.37;11.80;;;15.40;42.40;;;;;;5015028;28;20466;-67
2022/03/13 08:11:26;;;;;;;13.50;11.57;;;15.50;41.80;;;;;;5015093;28;20473;-67
2022/03/13 08:13:53;;;;;;;12.80;11.43;;;15.50;42.60;;;;;;5015433;28;20460;-67
2022/03/13 08:16:19;;;;;;;13.03;11.73;;;15.90;42.00;;;;;;5014746;28;20495;-67
2022/03/13 08:18:46;;;;;;;14.60;12.60;;;16.00;41.40;;;;;;5014955;28;20480;-67
2022/03/13 08:21:13;;;;;;;14.20;12.80;;;16.20;41.90;;;;;;5014574;28;20481;-67
2022/03/13 08:23:40;;;;;;;15.33;13.77;;;16.00;41.50;;;;;;5014862;28;20460;-67
2022/03/13 08:26:06;;;;;;;15.37;13.97;;;16.20;41.90;;;;;;5014571;28;20468;-67
2022/03/13 08:28:34;;;;;;;15.07;13.67;;;16.30;42.10;;;;;;5014781;28;20460;-67
2022/03/13 08:31:02;;;;;;;16.60;15.10;;;16.40;42.30;;;;;;5014568;28;20856;-67
2022/03/13 08:33:29;;;;;;;17.00;15.10;;;16.60;42.50;;;;;;5014048;28;20457;-67
2022/03/13 08:35:55;;;;;;;16.20;14.70;;;16.90;42.70;;;;;;5014010;28;20480;-67
2022/03/13 08:38:22;;;;;;;17.07;15.40;;;17.30;42.40;;;;;;5013812;28;20934;-67
2022/03/13 08:40:49;;;;;;;15.03;13.57;;;17.60;42.20;;;;;;5014601;28;20537;-67
2022/03/13 08:43:15;;;;;;;18.70;15.63;;;18.20;41.10;;;;;;5013802;28;20452;-67
2022/03/13 08:45:43;;;;;;;16.50;15.00;;;18.70;40.30;;;;;;5014143;28;20507;-67
2022/03/13 08:48:10;;;;;;;17.47;15.70;;;18.80;40.20;;;;;;5014245;28;20449;-67
2022/03/13 08:50:37;;;;;;;16.13;14.40;;;18.80;40.20;;;;;;5015428;28;20481;-68
2022/03/13 08:53:04;;;;;;;17.33;15.53;;;19.40;39.70;;;;;;5014600;28;20453;-67
2022/03/13 08:55:30;;;;;;;17.33;15.70;;;19.40;38.30;;;;;;5013925;28;20457;-67
2022/03/13 08:57:57;;;;;;;17.27;15.77;;;19.50;38.10;;;;;;5014139;28;20457;-67
2022/03/13 09:00:25;;;;;;;18.67;16.57;;;19.50;38.30;;;;;;5013666;28;20464;-67
2022/03/13 09:02:54;;;;;;;17.47;15.77;;;19.70;38.60;;;;;;5013933;28;20806;-67
2022/03/13 09:05:21;;;;;;;17.97;16.17;;;19.90;38.10;;;;;;5013996;28;20464;-67
2022/03/13 09:07:48;;;;;;;17.67;16.03;;;20.20;39.50;;;;;;5013767;28;20457;-67
2022/03/13 09:10:15;;;;;;;20.90;16.93;;;20.70;38.10;;;;;;5013818;28;20502;-67
2022/03/13 09:12:41;;;;;;;18.30;16.40;;;20.60;37.20;;;;;;5013958;28;20457;-67
2022/03/13 09:15:09;;;;;;;19.10;17.10;;;20.60;37.80;;;;;;5013670;28;20821;-67
2022/03/13 09:17:36;;;;;;;19.60;17.70;;;20.80;38.10;;;;;;5013773;28;20476;-67
2022/03/13 09:20:05;;;;;;;20.43;18.43;;;21.00;37.60;;;;;;5013061;28;20952;-67
2022/03/13 09:22:32;;;;;;;19.20;17.40;;;20.90;37.30;;;;;;5013517;28;20477;-67
2022/03/13 09:24:59;;;;;;;20.77;18.67;;;20.70;37.60;;;;;;5013460;28;20932;-67
2022/03/13 09:27:26;;;;;;;20.07;17.97;;;20.60;37.90;;;;;;5013637;28;20536;-67
2022/03/13 09:29:54;;;;;;;19.97;17.97;;;20.80;38.30;;;;;;5014335;28;20463;-67
2022/03/13 09:32:21;;;;;;;21.23;19.13;;;21.00;38.00;;;;;;5013441;28;20527;-67
2022/03/13 09:34:48;;;;;;;21.47;19.40;;;21.30;38.10;;;;;;5013601;28;20456;-67
2022/03/13 09:37:16;;;;;;;20.73;18.70;;;21.60;38.20;;;;;;5013568;28;20469;-67
2022/03/13 09:39:43;;;;;;;21.67;19.60;;;22.10;38.10;;;;;;5013103;28;20959;-67
2022/03/13 09:42:09;;;;;;;21.63;19.33;;;22.10;38.00;;;;;;5013302;28;20552;-67
2022/03/13 09:44:36;;;;;;;23.70;21.50;;;22.50;38.80;;;;;;5013395;28;20816;-67
2022/03/13 09:47:05;;;;;;;21.20;19.23;;;23.10;37.70;;;;;;5014063;28;20457;-67
2022/03/13 09:49:32;;;;;;;23.07;20.77;;;23.30;37.10;;;;;;5013390;28;20453;-67
2022/03/13 09:51:59;;;;;;;21.83;19.70;;;23.60;37.30;;;;;;5013040;28;21003;-67
2022/03/13 09:54:28;;;;;;;26.27;23.57;;;24.10;36.80;;;;;;5013509;28;20456;-67
2022/03/13 09:56:54;;;;;;;22.23;19.90;;;24.50;36.10;;;;;;5016636;28;20309;-67
2022/03/13 09:59:21;;;;;;;;;;;25.00;37.80;;;;;;5017758;28;20305;-67
2022/03/13 10:01:48;;;;;;;;;;;25.40;36.10;;;;;;5017220;28;19921;-67
2022/03/13 10:04:15;;;;;;;;;;;25.70;36.10;;;;;;5017425;28;19925;-67
2022/03/13 10:07:00;;;;;;;;;;;26.00;35.20;;;;;;5017405;28;19940;-67
2022/03/13 10:09:29;;;;;;;;;;;26.40;34.00;;;;;;5017046;28;19921;-67
2022/03/13 10:12:05;;;;;;;24.40;22.10;;;26.40;33.80;;;;;;5016932;28;20381;-67
2022/03/13 10:14:32;;;;;;;22.10;20.00;;;25.50;34.20;;;;;;5016748;28;20437;-67
2022/03/13 10:16:59;;;;;;;23.63;21.23;;;25.30;34.80;;;;;;5016500;28;20469;-67
2022/03/13 10:19:28;;;;;;;23.43;21.10;;;25.20;36.10;;;;;;5017631;28;20479;-67
2022/03/13 10:22:06;;;;;;;24.30;21.90;;;25.20;35.40;;;;;;5019479;28;20442;-67
2022/03/13 10:24:41;;;;;;;24.07;21.87;;;24.30;35.40;;;;;;5017270;28;20437;-68
2022/03/13 10:27:12;;;;;;;23.93;21.63;;;24.40;36.00;;;;;;5016631;28;20487;-67
2022/03/13 10:29:40;;;;;;;24.23;22.03;;;24.70;35.50;;;;;;5016515;28;20460;-67
2022/03/13 10:32:07;;;;;;;24.03;21.70;;;25.40;36.10;;;;;;5016132;28;21047;-67
2022/03/13 10:34:34;;;;;;;25.00;22.67;;;25.90;34.50;;;;;;5016599;28;20511;-67
2022/03/13 10:37:02;;;;;;;24.33;21.37;;;26.40;35.50;;;;;;5016443;28;20480;-67
2022/03/13 10:39:30;;;;;;;23.33;21.17;;;25.90;33.80;;;;;;5016551;28;20457;-67
2022/03/13 10:42:01;;;;;;;24.50;22.20;;;26.10;35.60;;;;;;5016415;28;20473;-67
2022/03/13 10:44:30;;;;;;;24.27;22.07;;;26.60;34.90;;;;;;5016494;28;20881;-67
2022/03/13 10:46:58;;;;;;;24.03;21.80;;;26.60;33.70;;;;;;5016560;28;20446;-67
2022/03/13 10:49:40;;;;;;;24.03;21.83;;;26.30;34.50;;;;;;5016496;28;20453;-68
2022/03/13 10:52:25;;;;;;;26.07;23.47;;;26.70;33.10;;;;;;5016587;28;20477;-67
2022/03/13 10:54:52;;;;;;;24.13;22.00;;;27.00;33.10;;;;;;5016323;28;20940;-67
2022/03/13 10:57:20;;;;;;;24.20;21.80;;;26.70;34.30;;;;;;5016362;28;20488;-67
2022/03/13 11:00:08;;;;;;;25.40;23.00;;;26.60;33.70;;;;;;5016136;28;20457;-67
2022/03/13 11:02:35;;;;;;;23.33;21.20;;;26.50;35.00;;;;;;5015555;28;20530;-67
2022/03/13 11:05:01;;;;;;;24.20;22.10;;;26.50;35.60;;;;;;5015534;28;20464;-67
2022/03/13 11:07:29;;;;;;;25.00;22.40;;;26.20;35.60;;;;;;5015605;28;20456;-67
2022/03/13 11:09:57;;;;;;;26.83;24.33;;;25.90;36.40;;;;;;5015929;28;20464;-67
2022/03/13 11:12:26;;;;;;;23.60;21.10;;;25.20;34.80;;;;;;5015971;28;20473;-67
2022/03/13 11:14:55;;;;;;;25.20;22.87;;;25.10;34.90;;;;;;5015825;28;20476;-67
2022/03/13 11:17:24;;;;;;;25.93;23.47;;;24.60;37.90;;;;;;5015835;28;20473;-67
2022/03/13 11:19:53;;;;;;;27.00;24.13;;;24.20;37.00;;;;;;5015492;28;20948;-67
2022/03/13 11:22:21;;;;;;;27.50;24.70;;;23.70;37.60;;;;;;5015635;28;20473;-67
2022/03/13 11:24:49;;;;;;;25.70;22.90;;;23.10;38.70;;;;;;5015708;28;20484;-67
2022/03/13 11:27:17;;;;;;;26.37;23.33;;;22.40;40.10;;;;;;5015288;28;20974;-67
2022/03/13 11:29:46;;;;;;;29.80;25.73;;;22.20;38.00;;;;;;5015479;28;20456;-67
2022/03/13 11:32:29;;;;;;;27.33;24.40;;;21.80;39.50;;;;;;5014701;28;20980;-67
2022/03/13 11:35:27;;;;;;;26.33;23.53;;;21.30;42.10;;;;;;5015498;28;20879;-67
2022/03/13 11:37:55;;;;;;;24.40;22.00;;;21.10;41.30;;;;;;5015278;28;20511;-67
2022/03/13 11:40:31;;;;;;;26.80;24.10;;;21.20;40.80;;;;;;5015292;28;20457;-67
2022/03/13 11:43:07;;;;;;;26.77;23.80;;;21.30;40.80;;;;;;5015561;28;20456;-67
2022/03/13 11:45:38;;;;;;;27.33;23.07;;;21.20;41.20;;;;;;5015266;28;20445;-67
2022/03/13 11:48:41;;;;;;;26.17;23.37;;;21.30;39.50;;;;;;5015298;28;20461;-67
2022/03/13 11:51:09;;;;;;;27.83;24.33;;;21.40;39.50;;;;;;5015451;28;20527;-67
2022/03/13 11:53:48;;;;;;;26.70;23.20;;;21.40;41.90;;;;;;5016846;28;20512;-67
2022/03/13 11:56:27;;;;;;;27.90;24.97;;;21.40;41.00;;;;;;5015065;28;20433;-67
2022/03/13 11:58:56;;;;;;;27.83;24.87;;;21.50;40.60;;;;;;5014832;28;20433;-67
2022/03/13 12:01:37;;;;;;;27.70;24.80;;;21.60;41.70;;;;;;5014420;28;20523;-67
2022/03/13 12:04:24;;;;;;;28.33;25.47;;;21.50;40.90;;;;;;5014902;28;20451;-67
2022/03/13 12:06:52;;;;;;;26.73;23.47;;;21.20;40.80;;;;;;5014760;28;20480;-67
2022/03/13 12:09:20;;;;;;;29.13;25.13;;;21.10;42.30;;;;;;5014285;28;20453;-68
2022/03/13 12:11:50;;;;;;;30.07;25.30;;;21.10;39.90;;;;;;5014706;28;20484;-67
2022/03/13 12:14:19;;;;;;;35.33;29.80;;;20.90;40.10;;;;;;5014672;28;20477;-67
2022/03/13 12:16:48;;;;;;;38.13;32.10;;;20.90;41.70;;;;;;5014621;28;20485;-67
2022/03/13 12:19:16;;;;;;;32.90;27.43;;;20.70;42.40;;;;;;5013656;28;20456;-68
2022/03/13 12:21:44;;;;;;;31.33;25.30;;;20.80;43.20;;;;;;5014348;28;20473;-67
2022/03/13 12:24:15;;;;;;;27.57;24.67;;;20.80;41.50;;;;;;5014386;28;20457;-67
2022/03/13 12:26:42;;;;;;;27.47;24.70;;;20.60;41.50;;;;;;5014688;28;20457;-67
2022/03/13 12:29:12;;;;;;;26.60;23.77;;;20.60;41.10;;;;;;5014641;28;20466;-68
2022/03/13 12:31:45;;;;;;;26.97;23.43;;;20.50;41.30;;;;;;5014249;28;20971;-67
2022/03/13 12:34:13;;;;;;;27.20;24.37;;;20.40;43.10;;;;;;5014610;28;20488;-67
2022/03/13 12:36:42;;;;;;;27.03;23.00;;;20.30;41.50;;;;;;5014621;28;20460;-68
2022/03/13 12:39:12;;;;;;;26.47;23.63;;;20.40;41.60;;;;;;5014425;28;20457;-67
2022/03/13 12:41:43;;;;;;;26.67;23.87;;;20.30;41.40;;;;;;5014241;28;20479;-67
2022/03/13 12:44:12;;;;;;;26.27;23.60;;;20.40;41.20;;;;;;5014390;28;20842;-67
2022/03/13 12:46:39;;;;;;;36.87;29.27;;;20.30;41.80;;;;;;5014872;28;20457;-68
2022/03/13 12:49:07;;;;;;;25.43;22.83;;;20.10;41.00;;;;;;5014206;28;20457;-67
2022/03/13 12:51:39;;;;;;;27.07;24.33;;;19.90;42.30;;;;;;5014324;28;20473;-67
2022/03/13 12:54:07;;;;;;;32.47;28.97;;;19.70;42.00;;;;;;5014269;28;20519;-68
2022/03/13 12:56:36;;;;;;;32.10;28.80;;;19.70;42.70;;;;;;5013963;28;20484;-68
2022/03/13 12:59:02;;;;;;;26.73;24.03;;;19.80;41.20;;;;;;5014243;28;20540;-68
2022/03/13 13:01:29;;;;;;;26.10;23.50;;;19.90;44.60;;;;;;5013422;28;20492;-67
2022/03/13 13:03:57;;;;;;;30.33;27.33;;;20.00;41.90;;;;;;5014253;28;20460;-67
2022/03/13 13:06:31;;;;;;;32.77;29.47;;;20.20;40.40;;;;;;5013675;28;20456;-67
2022/03/13 13:08:59;;;;;;;25.90;22.70;;;20.30;43.20;;;;;;5014007;28;20459;-67
2022/03/13 13:11:35;;;;;;;29.30;24.10;;;20.40;42.50;;;;;;5013889;28;20507;-67
2022/03/13 13:14:03;;;;;;;25.00;22.30;;;20.50;39.80;;;;;;5013881;28;20460;-67
2022/03/13 13:16:30;;;;;;;27.93;23.50;;;20.50;40.50;;;;;;5013862;28;20457;-67
2022/03/13 13:18:57;;;;;;;27.63;23.93;;;20.60;40.20;;;;;;5013721;28;20492;-67
2022/03/13 13:21:35;;;;;;;28.37;25.60;;;20.60;42.80;;;;;;5013859;28;20491;-67
2022/03/13 13:24:19;;;;;;;26.63;23.20;;;20.60;42.10;;;;;;5015150;28;20449;-67
2022/03/13 13:26:45;;;;;;;24.30;21.70;;;20.30;40.80;;;;;;5018150;28;20464;-67
2022/03/13 13:29:12;;;;;;;24.77;22.20;;;20.10;41.50;;;;;;5013997;28;20457;-67
2022/03/13 13:31:39;;;;;;;28.10;25.10;;;20.20;41.00;;;;;;5018191;28;20572;-67
2022/03/13 13:34:16;;;;;;;25.03;22.60;;;20.20;40.60;;;;;;5018103;28;20459;-67
2022/03/13 13:36:43;;;;;;;26.17;23.47;;;20.30;41.10;;;;;;5017797;28;20460;-67
2022/03/13 13:39:11;;;;;;;25.60;22.90;;;19.90;40.60;;;;;;5017807;28;20939;-67
2022/03/13 13:41:39;;;;;;;27.10;23.03;;;20.00;42.00;;;;;;5017572;28;20588;-68
2022/03/13 13:44:05;;;;;;;28.43;22.40;;;20.20;40.90;;;;;;5017739;28;20450;-67
2022/03/13 13:46:32;;;;;;;29.57;26.47;;;20.40;41.50;;;;;;5018283;28;20461;-67
2022/03/13 13:48:59;;;;;;;25.03;22.17;;;20.60;40.60;;;;;;5022303;28;20449;-67
2022/03/13 13:51:34;;;;;;;23.07;20.80;;;20.50;40.60;;;;;;5022868;28;20485;-67
2022/03/13 13:54:06;;;;;;;28.43;23.70;;;20.20;40.40;;;;;;5023192;28;20440;-67
2022/03/13 13:56:38;;;;;;;25.87;23.10;;;20.10;41.50;;;;;;5019940;28;20444;-67
2022/03/13 13:59:19;;;;;;;33.50;22.43;;;20.20;40.00;;;;;;5018740;28;21034;-67
2022/03/13 14:01:48;;;;;;;25.97;22.60;;;20.40;42.80;;;;;;5018256;28;20488;-67
2022/03/13 14:04:16;;;;;;;23.90;21.27;;;20.20;40.10;;;;;;5018366;28;20640;-67
2022/03/13 14:06:44;;;;;;;24.13;21.73;;;20.30;40.40;;;;;;5018120;28;20457;-67
2022/03/13 14:09:11;;;;;;;21.90;19.60;;;20.30;40.90;;;;;;5017222;28;20828;-67
2022/03/13 14:11:40;;;;;;;23.83;21.23;;;20.10;40.70;;;;;;5017213;28;20975;-66
2022/03/13 14:14:08;;;;;;;23.63;21.10;;;20.20;41.80;;;;;;5017667;28;20456;-68
2022/03/13 14:16:35;;;;;;;21.87;19.70;;;20.40;41.10;;;;;;5017915;28;20488;-68
2022/03/13 14:19:01;;;;;;;22.90;20.53;;;20.50;41.90;;;;;;5017482;28;20488;-67
2022/03/13 14:21:28;;;;;;;23.20;20.80;;;20.40;40.60;;;;;;5017435;28;20496;-67
2022/03/13 14:23:55;;;;;;;22.13;19.43;;;20.20;40.40;;;;;;5017430;28;20456;-67
2022/03/13 14:26:21;;;;;;;22.17;19.87;;;20.10;40.80;;;;;;5017131;28;20452;-68
2022/03/13 14:28:50;;;;;;;22.17;19.33;;;20.20;40.30;;;;;;5017260;28;20504;-67
2022/03/13 14:31:17;;;;;;;22.53;20.13;;;20.10;40.10;;;;;;5016860;28;20567;-67
2022/03/13 14:33:44;;;;;;;18.37;16.50;;;20.20;40.00;;;;;;5016895;28;20460;-68
2022/03/13 14:36:12;;;;;;;20.70;18.60;;;20.20;46.80;;;;;;5016766;28;20456;-68
2022/03/13 14:38:39;;;;;;;21.00;18.70;;;20.00;44.40;;;;;;5016719;28;21010;-68
2022/03/13 14:41:06;;;;;;;19.97;17.87;;;20.10;45.60;;;;;;5015683;28;20485;-67
2022/03/13 14:43:34;;;;;;;23.30;19.47;;;20.20;45.10;;;;;;5016165;28;20773;-68
2022/03/13 14:46:03;;;;;;;27.23;18.70;;;20.30;43.10;;;;;;5016219;28;20583;-67
2022/03/13 14:48:30;;;;;;;21.73;19.60;;;20.50;44.70;;;;;;5016258;28;20449;-68
2022/03/13 14:50:57;;;;;;;22.00;18.73;;;20.50;40.00;;;;;;5016301;28;20500;-67
2022/03/13 14:53:24;;;;;;;22.03;19.40;;;20.40;41.40;;;;;;5016280;28;20469;-68
2022/03/13 14:55:51;;;;;;;22.40;20.00;;;20.30;42.40;;;;;;5017147;28;20453;-68
2022/03/13 14:58:17;;;;;;;22.77;19.53;;;20.30;41.10;;;;;;5026504;28;20477;-68
2022/03/13 15:00:44;;;;;;;24.57;21.90;;;20.30;40.10;;;;;;5016219;28;20489;-69
2022/03/13 15:03:12;;;;;;;24.83;19.63;;;20.20;40.50;;;;;;5016032;28;20921;-67
2022/03/13 15:05:39;;;;;;;22.13;19.83;;;20.10;41.50;;;;;;5015891;28;20507;-68
2022/03/13 15:08:06;;;;;;;23.33;20.87;;;20.20;42.50;;;;;;5015332;28;20945;-67
2022/03/13 15:10:33;;;;;;;20.57;18.57;;;20.00;41.30;;;;;;5015806;28;20464;-68
2022/03/13 15:13:00;;;;;;;19.13;17.33;;;19.90;43.80;;;;;;5015830;28;20533;-68
2022/03/13 15:15:27;;;;;;;20.83;18.83;;;20.00;43.90;;;;;;5015755;28;20852;-68
2022/03/13 15:17:55;;;;;;;21.83;19.53;;;20.00;43.80;;;;;;5015774;28;20477;-68
2022/03/13 15:20:24;;;;;;;22.47;19.40;;;20.10;42.40;;;;;;5015669;28;20513;-67
2022/03/13 15:22:51;;;;;;;23.03;20.10;;;20.10;42.10;;;;;;5015479;28;20457;-68
2022/03/13 15:25:18;;;;;;;20.50;18.43;;;20.10;44.10;;;;;;5015933;28;20457;-68
2022/03/13 15:27:45;;;;;;;22.77;20.37;;;20.10;43.40;;;;;;5015511;28;20944;-68
2022/03/13 15:30:14;;;;;;;23.57;21.30;;;20.00;43.20;;;;;;5015801;28;20813;-67
2022/03/13 15:32:41;;;;;;;22.00;19.57;;;20.00;43.50;;;;;;5015775;28;20496;-67
2022/03/13 15:35:08;;;;;;;24.77;22.17;;;19.90;43.20;;;;;;5015377;28;20944;-68
2022/03/13 15:37:37;;;;;;;24.47;21.93;;;19.80;43.40;;;;;;5015594;28;20817;-67
2022/03/13 15:40:06;;;;;;;24.50;20.80;;;19.80;43.20;;;;;;5016540;28;20468;-68
2022/03/13 15:42:32;;;;;;;24.50;22.00;;;19.80;43.40;;;;;;5015238;28;20469;-67
2022/03/13 15:44:59;;;;;;;24.30;19.53;;;19.60;43.40;;;;;;5015245;28;20821;-67
2022/03/13 15:47:26;;;;;;;24.80;21.60;;;19.60;43.80;;;;;;5015461;28;20811;-68
2022/03/13 15:49:53;;;;;;;23.37;20.90;;;19.60;43.10;;;;;;5015664;28;20465;-67
2022/03/13 15:52:21;;;;;;;23.40;21.00;;;19.50;45.00;;;;;;5014853;28;20473;-67
2022/03/13 15:54:50;;;;;;;21.53;19.37;;;19.40;44.20;;;;;;5014531;28;20457;-67
2022/03/13 15:57:17;;;;;;;23.97;21.53;;;19.30;45.10;;;;;;5015437;28;20457;-68
2022/03/13 15:59:44;;;;;;;23.07;20.70;;;19.30;43.50;;;;;;5014926;28;20480;-67
2022/03/13 16:02:11;;;;;;;26.87;20.57;;;19.20;44.10;;;;;;5014628;28;20496;-67
2022/03/13 16:04:37;;;;;;;23.07;20.60;;;19.00;44.10;;;;;;5014909;28;20503;-67
2022/03/13 16:07:04;;;;;;;22.97;20.57;;;19.00;45.50;;;;;;5014545;28;20824;-66
2022/03/13 16:09:31;;;;;;;24.07;19.43;;;18.80;43.60;;;;;;5015218;28;20453;-66
2022/03/13 16:12:00;;;;;;;20.30;18.23;;;18.60;44.00;;;;;;5014547;28;20542;-66
2022/03/13 16:14:28;;;;;;;21.37;18.00;;;18.50;45.60;;;;;;5014976;28;20507;-65
2022/03/13 16:16:54;;;;;;;20.53;18.37;;;18.50;45.60;;;;;;5014979;28;20448;-66
2022/03/13 16:19:21;;;;;;;23.53;19.50;;;18.40;43.80;;;;;;5014774;28;20466;-66
2022/03/13 16:21:48;;;;;;;21.97;17.77;;;18.30;45.00;;;;;;5014681;28;20832;-66
2022/03/13 16:24:15;;;;;;;20.07;18.00;;;18.20;45.60;;;;;;5015016;28;20507;-66
2022/03/13 16:26:42;;;;;;;20.20;17.93;;;18.20;44.60;;;;;;5015063;28;20457;-67
2022/03/13 16:29:10;;;;;;;18.60;16.63;;;18.10;44.90;;;;;;5021016;28;20460;-67
2022/03/13 16:31:36;;;;;;;18.43;16.33;;;18.00;44.30;;;;;;5016716;28;20827;-66
2022/03/13 16:34:03;;;;;;;20.77;18.33;;;17.90;45.10;;;;;;5014486;28;20445;-65
2022/03/13 16:36:30;;;;;;;21.00;16.57;;;17.90;45.00;;;;;;5014700;28;20499;-68
2022/03/13 16:38:57;;;;;;;16.90;15.10;;;17.90;46.10;;;;;;5013945;28;20996;-67
2022/03/13 16:41:24;;;;;;;19.03;16.37;;;17.80;48.00;;;;;;5015402;28;20473;-67
2022/03/13 16:43:50;;;;;;;19.50;17.17;;;17.70;43.80;;;;;;5016053;28;20480;-66
2022/03/13 16:46:18;;;;;;;21.17;17.63;;;17.60;43.40;;;;;;5014707;28;20461;-67
2022/03/13 16:48:45;;;;;;;19.43;17.50;;;17.50;42.90;;;;;;5014252;28;20459;-66
2022/03/13 16:51:12;;;;;;;19.80;17.57;;;17.40;43.10;;;;;;5014377;28;20485;-67
2022/03/13 16:53:39;;;;;;;19.37;17.37;;;17.40;43.20;;;;;;5014248;28;20456;-67
2022/03/13 16:56:06;;;;;;;20.10;17.93;;;17.30;43.20;;;;;;5014298;28;20461;-66
2022/03/13 16:58:33;;;;;;;21.50;17.77;;;17.20;43.40;;;;;;5014021;28;20484;-67
2022/03/13 17:01:00;;;;;;;25.60;17.10;;;17.10;43.20;;;;;;5013532;28;20905;-67
2022/03/13 17:03:28;;;;;;;20.03;17.90;;;17.00;43.30;;;;;;5013624;28;20941;-67
2022/03/13 17:05:55;;;;;;;19.87;17.77;;;16.90;43.50;;;;;;5013965;28;20463;-67
2022/03/13 17:08:22;;;;;;;20.70;17.67;;;16.80;43.90;;;;;;5014093;28;20448;-68
2022/03/13 17:10:49;;;;;;;24.90;19.40;;;16.70;44.20;;;;;;5014096;28;20484;-66
2022/03/13 17:13:16;;;;;;;21.50;19.30;;;16.70;44.50;;;;;;5013884;28;20975;-66
2022/03/13 17:15:43;;;;;;;24.37;19.00;;;16.50;44.70;;;;;;5014187;28;20520;-66
2022/03/13 17:18:13;;;;;;;19.00;17.00;;;16.30;45.30;;;;;;5014126;28;20519;-67
2022/03/13 17:20:41;;;;;;;21.07;17.77;;;16.20;45.70;;;;;;5013868;28;21006;-66
2022/03/13 17:23:08;;;;;;;20.40;17.43;;;16.10;45.60;;;;;;5014257;28;20457;-66
2022/03/13 17:25:35;;;;;;;24.40;17.60;;;15.90;46.10;;;;;;5013872;28;20823;-67
2022/03/13 17:28:02;;;;;;;17.90;16.07;;;15.80;45.70;;;;;;5014057;28;20453;-66
2022/03/13 17:30:29;;;;;;;21.93;19.40;;;15.70;46.00;;;;;;5013658;28;20457;-66
2022/03/13 17:32:55;;;;;;;27.70;20.07;;;15.50;46.30;;;;;;5013812;28;20460;-68
2022/03/13 17:35:22;;;;;;;18.40;16.50;;;15.40;46.40;;;;;;5013718;28;20453;-67
2022/03/13 17:37:50;;;;;;;24.77;19.80;;;15.30;47.40;;;;;;5013872;28;20453;-67